sensor_id;sensor_type;location;lat;lon;timestamp;P1;durP1;ratioP1;P2;durP2;ratioP2
18090;SDS011;9172;49.948;9.208;2022-09-21T00:01:56;3.57;;;1.30;;
18090;SDS011;9172;49.948;9.208;2022-09-21T00:04:26;1.37;;;1.10;;
18090;SDS011;9172;49.948;9.208;2022-09-21T00:06:54;1.73;;;1.17;;
18090;SDS011;9172;49.948;9.208;2022-09-21T00:09:23;8.27;;;1.10;;
18090;SDS011;9172;49.948;9.208;2022-09-21T00:11:51;2.20;;;1.23;;
18090;SDS011;9172;49.948;9.208;2022-09-21T00:14:20;2.27;;;1.30;;
18090;SDS011;9172;49.948;9.208;2022-09-21T00:16:49;2.53;;;1.30;;
18090;SDS011;9172;49.948;9.208;2022-09-21T00:19:20;2.53;;;1.30;;
18090;SDS011;9172;49.948;9.208;2022-09-21T00:21:49;2.30;;;1.40;;
18090;SDS011;9172;49.948;9.208;2022-09-21T00:24:21;2.03;;;1.17;;
18090;SDS011;9172;49.948;9.208;2022-09-21T00:26:49;2.63;;;1.20;;
18090;SDS011;9172;49.948;9.208;2022-09-21T00:29:19;1.63;;;1.07;;
18090;SDS011;9172;49.948;9.208;2022-09-21T00:31:48;4.57;;;1.30;;
18090;SDS011;9172;49.948;9.208;2022-09-21T00:34:17;2.33;;;1.20;;
18090;SDS011;9172;49.948;9.208;2022-09-21T00:36:46;2.20;;;1.30;;
18090;SDS011;9172;49.948;9.208;2022-09-21T00:39:15;5.43;;;1.70;;
18090;SDS011;9172;49.948;9.208;2022-09-21T00:41:45;1.20;;;1.10;;
18090;SDS011;9172;49.948;9.208;2022-09-21T00:44:19;2.00;;;1.30;;
18090;SDS011;9172;49.948;9.208;2022-09-21T00:46:55;1.33;;;1.07;;
18090;SDS011;9172;49.948;9.208;2022-09-21T00:49:26;1.30;;;1.20;;
18090;SDS011;9172;49.948;9.208;2022-09-21T00:51:55;2.63;;;1.30;;
18090;SDS011;9172;49.948;9.208;2022-09-21T00:54:27;3.33;;;1.40;;
18090;SDS011;9172;49.948;9.208;2022-09-21T00:56:58;5.60;;;1.50;;
18090;SDS011;9172;49.948;9.208;2022-09-21T00:59:28;1.83;;;1.30;;
18090;SDS011;9172;49.948;9.208;2022-09-21T01:01:58;3.23;;;1.10;;
18090;SDS011;9172;49.948;9.208;2022-09-21T01:04:27;1.40;;;1.00;;
18090;SDS011;9172;49.948;9.208;2022-09-21T01:06:59;2.40;;;1.47;;
18090;SDS011;9172;49.948;9.208;2022-09-21T01:09:30;2.70;;;1.57;;
18090;SDS011;9172;49.948;9.208;2022-09-21T01:12:03;2.50;;;1.37;;
18090;SDS011;9172;49.948;9.208;2022-09-21T01:14:44;3.13;;;1.20;;
18090;SDS011;9172;49.948;9.208;2022-09-21T01:17:22;3.93;;;1.30;;
18090;SDS011;9172;49.948;9.208;2022-09-21T01:23:30;2.10;;;1.10;;
18090;SDS011;9172;49.948;9.208;2022-09-21T01:26:09;2.03;;;1.17;;
18090;SDS011;9172;49.948;9.208;2022-09-21T01:28:51;4.87;;;1.37;;
18090;SDS011;9172;49.948;9.208;2022-09-21T01:31:25;2.73;;;1.00;;
18090;SDS011;9172;49.948;9.208;2022-09-21T01:33:58;1.40;;;1.00;;
18090;SDS011;9172;49.948;9.208;2022-09-21T01:36:30;1.97;;;1.37;;
18090;SDS011;9172;49.948;9.208;2022-09-21T01:39:02;1.50;;;1.07;;
18090;SDS011;9172;49.948;9.208;2022-09-21T01:41:32;2.20;;;1.10;;
18090;SDS011;9172;49.948;9.208;2022-09-21T01:44:04;1.33;;;1.20;;
18090;SDS011;9172;49.948;9.208;2022-09-21T01:46:37;1.63;;;1.20;;
18090;SDS011;9172;49.948;9.208;2022-09-21T01:49:07;3.57;;;1.10;;
18090;SDS011;9172;49.948;9.208;2022-09-21T01:51:39;1.60;;;1.23;;
18090;SDS011;9172;49.948;9.208;2022-09-21T01:54:10;3.83;;;1.30;;
18090;SDS011;9172;49.948;9.208;2022-09-21T01:56:44;3.33;;;1.10;;
18090;SDS011;9172;49.948;9.208;2022-09-21T01:59:18;2.97;;;1.13;;
18090;SDS011;9172;49.948;9.208;2022-09-21T02:01:49;1.73;;;0.87;;
18090;SDS011;9172;49.948;9.208;2022-09-21T02:04:21;2.80;;;0.90;;
18090;SDS011;9172;49.948;9.208;2022-09-21T02:06:50;1.53;;;1.00;;
18090;SDS011;9172;49.948;9.208;2022-09-21T02:09:21;2.17;;;1.30;;
18090;SDS011;9172;49.948;9.208;2022-09-21T02:11:52;4.67;;;1.30;;
18090;SDS011;9172;49.948;9.208;2022-09-21T02:14:21;1.67;;;1.20;;
18090;SDS011;9172;49.948;9.208;2022-09-21T02:16:52;0.93;;;0.83;;
18090;SDS011;9172;49.948;9.208;2022-09-21T02:19:25;3.67;;;1.20;;
18090;SDS011;9172;49.948;9.208;2022-09-21T02:21:56;4.80;;;1.10;;
18090;SDS011;9172;49.948;9.208;2022-09-21T02:24:31;1.67;;;0.90;;
18090;SDS011;9172;49.948;9.208;2022-09-21T02:27:04;2.33;;;1.07;;
18090;SDS011;9172;49.948;9.208;2022-09-21T02:29:38;1.00;;;0.70;;
18090;SDS011;9172;49.948;9.208;2022-09-21T02:32:11;2.73;;;0.90;;
18090;SDS011;9172;49.948;9.208;2022-09-21T02:34:43;3.13;;;1.00;;
18090;SDS011;9172;49.948;9.208;2022-09-21T02:37:18;4.43;;;1.17;;
18090;SDS011;9172;49.948;9.208;2022-09-21T02:39:51;3.77;;;0.90;;
18090;SDS011;9172;49.948;9.208;2022-09-21T02:42:22;2.07;;;0.80;;
18090;SDS011;9172;49.948;9.208;2022-09-21T02:44:54;2.20;;;0.83;;
18090;SDS011;9172;49.948;9.208;2022-09-21T02:47:27;5.37;;;1.10;;
18090;SDS011;9172;49.948;9.208;2022-09-21T02:50:00;1.47;;;0.80;;
18090;SDS011;9172;49.948;9.208;2022-09-21T02:52:30;2.23;;;1.00;;
18090;SDS011;9172;49.948;9.208;2022-09-21T02:55:00;2.47;;;0.83;;
18090;SDS011;9172;49.948;9.208;2022-09-21T02:57:31;3.93;;;1.20;;
18090;SDS011;9172;49.948;9.208;2022-09-21T03:00:01;4.63;;;1.10;;
18090;SDS011;9172;49.948;9.208;2022-09-21T03:02:35;2.53;;;1.00;;
18090;SDS011;9172;49.948;9.208;2022-09-21T03:05:06;2.67;;;0.93;;
18090;SDS011;9172;49.948;9.208;2022-09-21T03:07:36;1.57;;;0.97;;
18090;SDS011;9172;49.948;9.208;2022-09-21T03:10:05;1.73;;;1.00;;
18090;SDS011;9172;49.948;9.208;2022-09-21T03:12:35;3.07;;;1.17;;
18090;SDS011;9172;49.948;9.208;2022-09-21T03:15:05;2.67;;;1.17;;
18090;SDS011;9172;49.948;9.208;2022-09-21T03:17:35;5.63;;;1.10;;
18090;SDS011;9172;49.948;9.208;2022-09-21T03:20:05;1.70;;;1.03;;
18090;SDS011;9172;49.948;9.208;2022-09-21T03:22:35;0.93;;;0.90;;
18090;SDS011;9172;49.948;9.208;2022-09-21T03:25:04;1.60;;;0.87;;
18090;SDS011;9172;49.948;9.208;2022-09-21T03:27:35;1.63;;;0.90;;
18090;SDS011;9172;49.948;9.208;2022-09-21T03:30:05;1.90;;;1.00;;
18090;SDS011;9172;49.948;9.208;2022-09-21T03:32:35;3.37;;;1.53;;
18090;SDS011;9172;49.948;9.208;2022-09-21T03:35:04;1.83;;;0.90;;
18090;SDS011;9172;49.948;9.208;2022-09-21T03:37:33;3.60;;;1.30;;
18090;SDS011;9172;49.948;9.208;2022-09-21T03:40:04;0.93;;;0.80;;
18090;SDS011;9172;49.948;9.208;2022-09-21T03:42:33;2.90;;;0.97;;
18090;SDS011;9172;49.948;9.208;2022-09-21T03:45:03;3.23;;;1.10;;
18090;SDS011;9172;49.948;9.208;2022-09-21T03:47:33;2.00;;;0.97;;
18090;SDS011;9172;49.948;9.208;2022-09-21T03:50:02;1.13;;;0.80;;
18090;SDS011;9172;49.948;9.208;2022-09-21T03:52:32;8.77;;;0.97;;
18090;SDS011;9172;49.948;9.208;2022-09-21T03:55:01;4.50;;;1.40;;
18090;SDS011;9172;49.948;9.208;2022-09-21T03:57:31;1.97;;;0.90;;
18090;SDS011;9172;49.948;9.208;2022-09-21T04:00:01;1.13;;;0.80;;
18090;SDS011;9172;49.948;9.208;2022-09-21T04:02:30;1.60;;;0.80;;
18090;SDS011;9172;49.948;9.208;2022-09-21T04:04:59;2.57;;;0.90;;
18090;SDS011;9172;49.948;9.208;2022-09-21T04:07:29;8.23;;;1.00;;
18090;SDS011;9172;49.948;9.208;2022-09-21T04:09:59;1.60;;;0.77;;
18090;SDS011;9172;49.948;9.208;2022-09-21T04:12:28;2.93;;;0.60;;
18090;SDS011;9172;49.948;9.208;2022-09-21T04:14:57;1.90;;;0.80;;
18090;SDS011;9172;49.948;9.208;2022-09-21T04:17:26;6.67;;;1.20;;
18090;SDS011;9172;49.948;9.208;2022-09-21T04:19:56;2.50;;;1.47;;
18090;SDS011;9172;49.948;9.208;2022-09-21T04:22:25;1.67;;;0.97;;
18090;SDS011;9172;49.948;9.208;2022-09-21T04:24:53;0.80;;;0.80;;
18090;SDS011;9172;49.948;9.208;2022-09-21T04:27:22;1.47;;;0.80;;
18090;SDS011;9172;49.948;9.208;2022-09-21T04:29:50;3.00;;;0.90;;
18090;SDS011;9172;49.948;9.208;2022-09-21T04:32:19;1.50;;;0.83;;
18090;SDS011;9172;49.948;9.208;2022-09-21T04:34:47;2.07;;;1.10;;
18090;SDS011;9172;49.948;9.208;2022-09-21T04:37:16;5.53;;;1.00;;
18090;SDS011;9172;49.948;9.208;2022-09-21T04:39:45;1.30;;;0.90;;
18090;SDS011;9172;49.948;9.208;2022-09-21T04:42:14;1.73;;;1.00;;
18090;SDS011;9172;49.948;9.208;2022-09-21T04:44:44;1.00;;;0.80;;
18090;SDS011;9172;49.948;9.208;2022-09-21T04:47:13;3.40;;;1.00;;
18090;SDS011;9172;49.948;9.208;2022-09-21T04:49:43;4.13;;;1.40;;
18090;SDS011;9172;49.948;9.208;2022-09-21T04:52:12;2.97;;;1.30;;
18090;SDS011;9172;49.948;9.208;2022-09-21T04:54:40;2.77;;;1.00;;
18090;SDS011;9172;49.948;9.208;2022-09-21T04:57:09;2.87;;;1.17;;
18090;SDS011;9172;49.948;9.208;2022-09-21T04:59:39;3.23;;;1.17;;
18090;SDS011;9172;49.948;9.208;2022-09-21T05:02:16;1.43;;;1.10;;
18090;SDS011;9172;49.948;9.208;2022-09-21T05:07:32;1.97;;;1.10;;
18090;SDS011;9172;49.948;9.208;2022-09-21T05:10:01;7.87;;;1.77;;
18090;SDS011;9172;49.948;9.208;2022-09-21T05:15:07;5.53;;;2.60;;
18090;SDS011;9172;49.948;9.208;2022-09-21T05:17:37;8.00;;;2.53;;
18090;SDS011;9172;49.948;9.208;2022-09-21T05:20:08;3.80;;;2.20;;
18090;SDS011;9172;49.948;9.208;2022-09-21T05:22:37;3.50;;;1.70;;
18090;SDS011;9172;49.948;9.208;2022-09-21T05:25:07;2.67;;;1.20;;
18090;SDS011;9172;49.948;9.208;2022-09-21T05:27:36;3.73;;;1.40;;
18090;SDS011;9172;49.948;9.208;2022-09-21T05:30:06;5.70;;;2.30;;
18090;SDS011;9172;49.948;9.208;2022-09-21T05:32:40;11.30;;;2.30;;
18090;SDS011;9172;49.948;9.208;2022-09-21T05:35:14;6.20;;;2.53;;
18090;SDS011;9172;49.948;9.208;2022-09-21T05:37:47;4.80;;;2.00;;
18090;SDS011;9172;49.948;9.208;2022-09-21T05:40:19;3.83;;;1.87;;
18090;SDS011;9172;49.948;9.208;2022-09-21T05:42:49;3.77;;;2.03;;
18090;SDS011;9172;49.948;9.208;2022-09-21T05:45:19;1.90;;;1.70;;
18090;SDS011;9172;49.948;9.208;2022-09-21T05:47:51;8.70;;;1.97;;
18090;SDS011;9172;49.948;9.208;2022-09-21T05:50:28;4.37;;;1.90;;
18090;SDS011;9172;49.948;9.208;2022-09-21T05:53:06;3.27;;;1.30;;
18090;SDS011;9172;49.948;9.208;2022-09-21T05:55:41;3.43;;;1.03;;
18090;SDS011;9172;49.948;9.208;2022-09-21T05:58:14;2.50;;;1.33;;
18090;SDS011;9172;49.948;9.208;2022-09-21T06:00:46;3.40;;;1.13;;
18090;SDS011;9172;49.948;9.208;2022-09-21T06:03:27;1.70;;;0.97;;
18090;SDS011;9172;49.948;9.208;2022-09-21T06:06:00;2.53;;;0.77;;
18090;SDS011;9172;49.948;9.208;2022-09-21T06:08:29;2.23;;;1.30;;
18090;SDS011;9172;49.948;9.208;2022-09-21T06:10:58;2.27;;;1.23;;
18090;SDS011;9172;49.948;9.208;2022-09-21T06:13:26;4.30;;;1.43;;
18090;SDS011;9172;49.948;9.208;2022-09-21T06:15:55;3.63;;;1.37;;
18090;SDS011;9172;49.948;9.208;2022-09-21T06:18:23;3.33;;;1.10;;
18090;SDS011;9172;49.948;9.208;2022-09-21T06:20:52;3.03;;;1.30;;
18090;SDS011;9172;49.948;9.208;2022-09-21T06:23:22;2.30;;;1.47;;
18090;SDS011;9172;49.948;9.208;2022-09-21T06:25:51;1.50;;;1.20;;
18090;SDS011;9172;49.948;9.208;2022-09-21T06:28:20;4.20;;;1.33;;
18090;SDS011;9172;49.948;9.208;2022-09-21T06:30:50;3.33;;;1.30;;
18090;SDS011;9172;49.948;9.208;2022-09-21T06:33:19;3.50;;;1.97;;
18090;SDS011;9172;49.948;9.208;2022-09-21T06:35:52;9.07;;;2.40;;
18090;SDS011;9172;49.948;9.208;2022-09-21T06:38:23;4.23;;;2.57;;
18090;SDS011;9172;49.948;9.208;2022-09-21T06:40:52;2.40;;;1.70;;
18090;SDS011;9172;49.948;9.208;2022-09-21T06:43:22;4.17;;;2.10;;
18090;SDS011;9172;49.948;9.208;2022-09-21T06:45:55;2.97;;;2.20;;
18090;SDS011;9172;49.948;9.208;2022-09-21T06:48:25;2.77;;;1.60;;
18090;SDS011;9172;49.948;9.208;2022-09-21T06:50:56;2.50;;;1.40;;
18090;SDS011;9172;49.948;9.208;2022-09-21T06:53:25;1.53;;;1.20;;
18090;SDS011;9172;49.948;9.208;2022-09-21T06:58:35;2.17;;;1.10;;
18090;SDS011;9172;49.948;9.208;2022-09-21T07:01:05;6.17;;;1.30;;
18090;SDS011;9172;49.948;9.208;2022-09-21T07:06:12;4.27;;;1.70;;
18090;SDS011;9172;49.948;9.208;2022-09-21T07:11:18;1.87;;;1.20;;
18090;SDS011;9172;49.948;9.208;2022-09-21T07:13:49;3.60;;;1.60;;
18090;SDS011;9172;49.948;9.208;2022-09-21T07:16:18;2.47;;;1.50;;
18090;SDS011;9172;49.948;9.208;2022-09-21T07:21:23;3.93;;;1.47;;
18090;SDS011;9172;49.948;9.208;2022-09-21T07:23:52;4.43;;;1.50;;
18090;SDS011;9172;49.948;9.208;2022-09-21T07:26:20;4.90;;;1.73;;
18090;SDS011;9172;49.948;9.208;2022-09-21T07:28:49;3.63;;;1.50;;
18090;SDS011;9172;49.948;9.208;2022-09-21T07:31:19;5.93;;;1.30;;
18090;SDS011;9172;49.948;9.208;2022-09-21T07:33:48;3.20;;;1.30;;
18090;SDS011;9172;49.948;9.208;2022-09-21T07:36:19;5.10;;;1.43;;
18090;SDS011;9172;49.948;9.208;2022-09-21T07:38:49;2.73;;;1.60;;
18090;SDS011;9172;49.948;9.208;2022-09-21T07:41:19;2.50;;;1.37;;
18090;SDS011;9172;49.948;9.208;2022-09-21T07:43:48;3.67;;;1.47;;
18090;SDS011;9172;49.948;9.208;2022-09-21T07:46:16;1.97;;;1.30;;
18090;SDS011;9172;49.948;9.208;2022-09-21T07:48:46;4.07;;;1.33;;
18090;SDS011;9172;49.948;9.208;2022-09-21T07:51:14;3.53;;;1.57;;
18090;SDS011;9172;49.948;9.208;2022-09-21T07:53:43;5.17;;;1.43;;
18090;SDS011;9172;49.948;9.208;2022-09-21T07:56:12;1.63;;;1.10;;
18090;SDS011;9172;49.948;9.208;2022-09-21T07:58:44;1.73;;;1.10;;
18090;SDS011;9172;49.948;9.208;2022-09-21T08:01:31;1.93;;;1.07;;
18090;SDS011;9172;49.948;9.208;2022-09-21T08:04:01;3.60;;;1.10;;
18090;SDS011;9172;49.948;9.208;2022-09-21T08:06:31;2.90;;;1.20;;
18090;SDS011;9172;49.948;9.208;2022-09-21T08:09:03;2.10;;;1.53;;
18090;SDS011;9172;49.948;9.208;2022-09-21T08:11:35;1.73;;;1.23;;
18090;SDS011;9172;49.948;9.208;2022-09-21T08:14:05;2.27;;;1.50;;
18090;SDS011;9172;49.948;9.208;2022-09-21T08:16:38;3.00;;;1.70;;
18090;SDS011;9172;49.948;9.208;2022-09-21T08:19:10;1.53;;;1.20;;
18090;SDS011;9172;49.948;9.208;2022-09-21T08:21:38;2.83;;;1.70;;
18090;SDS011;9172;49.948;9.208;2022-09-21T08:24:07;2.20;;;1.33;;
18090;SDS011;9172;49.948;9.208;2022-09-21T08:26:36;4.70;;;1.90;;
18090;SDS011;9172;49.948;9.208;2022-09-21T08:29:05;1.50;;;1.10;;
18090;SDS011;9172;49.948;9.208;2022-09-21T08:31:34;2.53;;;1.60;;
18090;SDS011;9172;49.948;9.208;2022-09-21T08:34:03;1.80;;;1.13;;
18090;SDS011;9172;49.948;9.208;2022-09-21T08:36:32;3.17;;;1.57;;
18090;SDS011;9172;49.948;9.208;2022-09-21T08:39:01;4.47;;;1.90;;
18090;SDS011;9172;49.948;9.208;2022-09-21T08:41:35;2.63;;;2.10;;
18090;SDS011;9172;49.948;9.208;2022-09-21T08:44:12;5.67;;;1.60;;
18090;SDS011;9172;49.948;9.208;2022-09-21T08:46:44;8.47;;;2.07;;
18090;SDS011;9172;49.948;9.208;2022-09-21T08:49:16;5.63;;;2.00;;
18090;SDS011;9172;49.948;9.208;2022-09-21T08:51:48;6.43;;;2.60;;
18090;SDS011;9172;49.948;9.208;2022-09-21T08:54:22;2.50;;;1.90;;
18090;SDS011;9172;49.948;9.208;2022-09-21T08:56:51;5.23;;;2.07;;
18090;SDS011;9172;49.948;9.208;2022-09-21T08:59:20;2.07;;;1.53;;
18090;SDS011;9172;49.948;9.208;2022-09-21T09:01:51;7.57;;;2.10;;
18090;SDS011;9172;49.948;9.208;2022-09-21T09:04:26;4.90;;;2.00;;
18090;SDS011;9172;49.948;9.208;2022-09-21T09:07:03;4.00;;;1.70;;
18090;SDS011;9172;49.948;9.208;2022-09-21T09:09:43;3.77;;;1.90;;
18090;SDS011;9172;49.948;9.208;2022-09-21T09:12:21;3.47;;;1.80;;
18090;SDS011;9172;49.948;9.208;2022-09-21T09:14:57;2.57;;;1.67;;
18090;SDS011;9172;49.948;9.208;2022-09-21T09:17:41;2.80;;;1.80;;
18090;SDS011;9172;49.948;9.208;2022-09-21T09:20:13;3.57;;;1.80;;
18090;SDS011;9172;49.948;9.208;2022-09-21T09:22:46;2.13;;;1.77;;
18090;SDS011;9172;49.948;9.208;2022-09-21T09:25:18;7.97;;;1.83;;
18090;SDS011;9172;49.948;9.208;2022-09-21T09:27:50;4.33;;;1.80;;
18090;SDS011;9172;49.948;9.208;2022-09-21T09:30:22;4.43;;;1.57;;
18090;SDS011;9172;49.948;9.208;2022-09-21T09:32:53;4.57;;;2.07;;
18090;SDS011;9172;49.948;9.208;2022-09-21T09:35:26;3.17;;;1.33;;
18090;SDS011;9172;49.948;9.208;2022-09-21T09:38:01;2.63;;;1.57;;
18090;SDS011;9172;49.948;9.208;2022-09-21T09:40:35;4.43;;;1.70;;
18090;SDS011;9172;49.948;9.208;2022-09-21T09:43:13;2.30;;;1.50;;
18090;SDS011;9172;49.948;9.208;2022-09-21T09:45:48;2.93;;;1.50;;
18090;SDS011;9172;49.948;9.208;2022-09-21T09:48:24;3.63;;;1.93;;
18090;SDS011;9172;49.948;9.208;2022-09-21T09:51:07;1.80;;;1.50;;
18090;SDS011;9172;49.948;9.208;2022-09-21T09:53:38;4.20;;;1.70;;
18090;SDS011;9172;49.948;9.208;2022-09-21T09:56:07;2.93;;;1.80;;
18090;SDS011;9172;49.948;9.208;2022-09-21T09:58:40;1.77;;;1.27;;
18090;SDS011;9172;49.948;9.208;2022-09-21T10:01:13;3.70;;;1.27;;
18090;SDS011;9172;49.948;9.208;2022-09-21T10:04:04;5.73;;;1.40;;
18090;SDS011;9172;49.948;9.208;2022-09-21T10:06:34;3.77;;;1.57;;
18090;SDS011;9172;49.948;9.208;2022-09-21T10:09:17;2.50;;;1.50;;
18090;SDS011;9172;49.948;9.208;2022-09-21T10:11:48;2.37;;;1.27;;
18090;SDS011;9172;49.948;9.208;2022-09-21T10:14:18;3.30;;;1.40;;
18090;SDS011;9172;49.948;9.208;2022-09-21T10:16:50;1.93;;;1.30;;
18090;SDS011;9172;49.948;9.208;2022-09-21T10:19:20;3.93;;;1.47;;
18090;SDS011;9172;49.948;9.208;2022-09-21T10:21:53;2.03;;;1.57;;
18090;SDS011;9172;49.948;9.208;2022-09-21T10:24:24;4.77;;;1.53;;
18090;SDS011;9172;49.948;9.208;2022-09-21T10:27:00;1.60;;;1.30;;
18090;SDS011;9172;49.948;9.208;2022-09-21T10:32:17;3.77;;;1.83;;
18090;SDS011;9172;49.948;9.208;2022-09-21T10:35:13;3.43;;;1.60;;
18090;SDS011;9172;49.948;9.208;2022-09-21T10:40:24;3.87;;;1.30;;
18090;SDS011;9172;49.948;9.208;2022-09-21T10:42:56;1.70;;;1.40;;
18090;SDS011;9172;49.948;9.208;2022-09-21T10:45:27;2.33;;;1.27;;
18090;SDS011;9172;49.948;9.208;2022-09-21T10:47:57;4.00;;;1.77;;
18090;SDS011;9172;49.948;9.208;2022-09-21T10:50:29;4.67;;;1.70;;
18090;SDS011;9172;49.948;9.208;2022-09-21T10:53:00;2.63;;;1.47;;
18090;SDS011;9172;49.948;9.208;2022-09-21T10:55:31;4.60;;;2.10;;
18090;SDS011;9172;49.948;9.208;2022-09-21T10:58:04;3.57;;;1.53;;
18090;SDS011;9172;49.948;9.208;2022-09-21T11:00:40;2.47;;;1.63;;
18090;SDS011;9172;49.948;9.208;2022-09-21T11:03:27;3.17;;;1.33;;
18090;SDS011;9172;49.948;9.208;2022-09-21T11:06:00;2.97;;;1.40;;
18090;SDS011;9172;49.948;9.208;2022-09-21T11:08:33;1.97;;;1.40;;
18090;SDS011;9172;49.948;9.208;2022-09-21T11:11:12;2.17;;;1.10;;
18090;SDS011;9172;49.948;9.208;2022-09-21T11:13:44;5.43;;;1.50;;
18090;SDS011;9172;49.948;9.208;2022-09-21T11:16:15;1.23;;;1.00;;
18090;SDS011;9172;49.948;9.208;2022-09-21T11:18:49;4.60;;;1.50;;
18090;SDS011;9172;49.948;9.208;2022-09-21T11:21:22;1.40;;;0.70;;
18090;SDS011;9172;49.948;9.208;2022-09-21T11:23:57;0.93;;;0.70;;
18090;SDS011;9172;49.948;9.208;2022-09-21T11:26:27;2.70;;;0.70;;
18090;SDS011;9172;49.948;9.208;2022-09-21T11:29:00;0.87;;;0.63;;
18090;SDS011;9172;49.948;9.208;2022-09-21T11:31:36;1.90;;;0.80;;
18090;SDS011;9172;49.948;9.208;2022-09-21T11:34:18;1.93;;;0.63;;
18090;SDS011;9172;49.948;9.208;2022-09-21T11:37:08;0.83;;;0.73;;
18090;SDS011;9172;49.948;9.208;2022-09-21T11:39:44;4.03;;;0.80;;
18090;SDS011;9172;49.948;9.208;2022-09-21T11:42:21;2.10;;;0.53;;
18090;SDS011;9172;49.948;9.208;2022-09-21T11:44:57;0.83;;;0.37;;
18090;SDS011;9172;49.948;9.208;2022-09-21T11:47:36;1.10;;;0.40;;
18090;SDS011;9172;49.948;9.208;2022-09-21T11:50:14;0.90;;;0.40;;
18090;SDS011;9172;49.948;9.208;2022-09-21T11:52:59;1.10;;;0.40;;
18090;SDS011;9172;49.948;9.208;2022-09-21T11:55:47;2.57;;;0.50;;
18090;SDS011;9172;49.948;9.208;2022-09-21T11:58:24;1.10;;;0.47;;
18090;SDS011;9172;49.948;9.208;2022-09-21T12:00:57;0.87;;;0.50;;
18090;SDS011;9172;49.948;9.208;2022-09-21T12:03:43;2.40;;;0.47;;
18090;SDS011;9172;49.948;9.208;2022-09-21T12:06:15;0.77;;;0.40;;
18090;SDS011;9172;49.948;9.208;2022-09-21T12:08:56;0.40;;;0.40;;
18090;SDS011;9172;49.948;9.208;2022-09-21T12:11:33;1.33;;;0.57;;
18090;SDS011;9172;49.948;9.208;2022-09-21T12:14:08;1.53;;;0.60;;
18090;SDS011;9172;49.948;9.208;2022-09-21T12:16:42;1.80;;;0.50;;
18090;SDS011;9172;49.948;9.208;2022-09-21T12:19:16;0.93;;;0.43;;
18090;SDS011;9172;49.948;9.208;2022-09-21T12:21:47;1.50;;;0.63;;
18090;SDS011;9172;49.948;9.208;2022-09-21T12:24:19;0.63;;;0.43;;
18090;SDS011;9172;49.948;9.208;2022-09-21T12:26:51;1.03;;;0.50;;
18090;SDS011;9172;49.948;9.208;2022-09-21T12:29:23;0.50;;;0.40;;
18090;SDS011;9172;49.948;9.208;2022-09-21T12:31:55;0.90;;;0.50;;
18090;SDS011;9172;49.948;9.208;2022-09-21T12:34:29;0.93;;;0.40;;
18090;SDS011;9172;49.948;9.208;2022-09-21T12:37:03;2.00;;;0.57;;
18090;SDS011;9172;49.948;9.208;2022-09-21T12:39:38;2.03;;;0.77;;
18090;SDS011;9172;49.948;9.208;2022-09-21T12:42:11;1.47;;;0.50;;
18090;SDS011;9172;49.948;9.208;2022-09-21T12:44:46;0.70;;;0.60;;
18090;SDS011;9172;49.948;9.208;2022-09-21T12:47:19;0.60;;;0.50;;
18090;SDS011;9172;49.948;9.208;2022-09-21T12:49:52;2.20;;;1.00;;
18090;SDS011;9172;49.948;9.208;2022-09-21T12:52:25;1.23;;;0.57;;
18090;SDS011;9172;49.948;9.208;2022-09-21T12:54:56;2.17;;;0.70;;
18090;SDS011;9172;49.948;9.208;2022-09-21T12:57:29;1.47;;;0.63;;
18090;SDS011;9172;49.948;9.208;2022-09-21T13:00:03;2.10;;;0.80;;
18090;SDS011;9172;49.948;9.208;2022-09-21T13:02:36;0.80;;;0.50;;
18090;SDS011;9172;49.948;9.208;2022-09-21T13:05:10;1.17;;;0.47;;
18090;SDS011;9172;49.948;9.208;2022-09-21T13:10:47;1.40;;;0.60;;
18090;SDS011;9172;49.948;9.208;2022-09-21T13:13:28;1.40;;;0.60;;
18090;SDS011;9172;49.948;9.208;2022-09-21T13:15:59;1.13;;;0.60;;
18090;SDS011;9172;49.948;9.208;2022-09-21T13:18:30;2.13;;;0.70;;
18090;SDS011;9172;49.948;9.208;2022-09-21T13:21:12;1.57;;;0.50;;
18090;SDS011;9172;49.948;9.208;2022-09-21T13:23:43;0.47;;;0.40;;
18090;SDS011;9172;49.948;9.208;2022-09-21T13:26:26;1.73;;;0.70;;
18090;SDS011;9172;49.948;9.208;2022-09-21T13:29:00;0.40;;;0.40;;
18090;SDS011;9172;49.948;9.208;2022-09-21T13:31:42;0.60;;;0.50;;
18090;SDS011;9172;49.948;9.208;2022-09-21T13:34:30;3.40;;;0.57;;
18090;SDS011;9172;49.948;9.208;2022-09-21T13:43:14;0.60;;;0.57;;
18090;SDS011;9172;49.948;9.208;2022-09-21T13:45:52;2.60;;;0.50;;
18090;SDS011;9172;49.948;9.208;2022-09-21T13:48:22;3.63;;;0.63;;
18090;SDS011;9172;49.948;9.208;2022-09-21T13:50:59;0.77;;;0.50;;
18090;SDS011;9172;49.948;9.208;2022-09-21T13:53:32;1.23;;;0.50;;
18090;SDS011;9172;49.948;9.208;2022-09-21T13:56:06;1.43;;;0.30;;
18090;SDS011;9172;49.948;9.208;2022-09-21T13:58:40;1.13;;;0.57;;
18090;SDS011;9172;49.948;9.208;2022-09-21T14:01:15;1.67;;;0.37;;
18090;SDS011;9172;49.948;9.208;2022-09-21T14:03:48;3.30;;;0.60;;
18090;SDS011;9172;49.948;9.208;2022-09-21T14:06:19;1.33;;;0.50;;
18090;SDS011;9172;49.948;9.208;2022-09-21T14:08:53;1.10;;;0.67;;
18090;SDS011;9172;49.948;9.208;2022-09-21T14:11:28;1.13;;;0.50;;
18090;SDS011;9172;49.948;9.208;2022-09-21T14:14:00;0.53;;;0.30;;
18090;SDS011;9172;49.948;9.208;2022-09-21T14:16:50;0.50;;;0.50;;
18090;SDS011;9172;49.948;9.208;2022-09-21T14:22:39;0.50;;;0.40;;
18090;SDS011;9172;49.948;9.208;2022-09-21T14:25:22;0.57;;;0.50;;
18090;SDS011;9172;49.948;9.208;2022-09-21T14:27:54;0.50;;;0.47;;
18090;SDS011;9172;49.948;9.208;2022-09-21T14:30:29;1.37;;;0.50;;
18090;SDS011;9172;49.948;9.208;2022-09-21T14:33:06;1.27;;;0.47;;
18090;SDS011;9172;49.948;9.208;2022-09-21T14:35:40;0.63;;;0.40;;
18090;SDS011;9172;49.948;9.208;2022-09-21T14:38:19;1.03;;;0.43;;
18090;SDS011;9172;49.948;9.208;2022-09-21T14:40:50;1.37;;;0.50;;
18090;SDS011;9172;49.948;9.208;2022-09-21T14:43:23;1.87;;;0.53;;
18090;SDS011;9172;49.948;9.208;2022-09-21T14:46:07;0.40;;;0.40;;
18090;SDS011;9172;49.948;9.208;2022-09-21T14:48:49;0.47;;;0.40;;
18090;SDS011;9172;49.948;9.208;2022-09-21T14:51:21;2.53;;;0.87;;
18090;SDS011;9172;49.948;9.208;2022-09-21T15:07:37;1.57;;;0.60;;
18090;SDS011;9172;49.948;9.208;2022-09-21T15:13:20;1.20;;;0.80;;
18090;SDS011;9172;49.948;9.208;2022-09-21T15:15:58;1.20;;;0.67;;
18090;SDS011;9172;49.948;9.208;2022-09-21T15:18:33;2.50;;;0.87;;
18090;SDS011;9172;49.948;9.208;2022-09-21T15:21:20;0.50;;;0.50;;
18090;SDS011;9172;49.948;9.208;2022-09-21T15:23:51;1.00;;;0.90;;
18090;SDS011;9172;49.948;9.208;2022-09-21T15:26:21;1.00;;;0.63;;
18090;SDS011;9172;49.948;9.208;2022-09-21T15:28:55;1.73;;;0.80;;
18090;SDS011;9172;49.948;9.208;2022-09-21T15:31:25;1.50;;;0.90;;
18090;SDS011;9172;49.948;9.208;2022-09-21T15:33:59;4.37;;;0.60;;
18090;SDS011;9172;49.948;9.208;2022-09-21T15:36:32;0.90;;;0.60;;
18090;SDS011;9172;49.948;9.208;2022-09-21T15:39:03;0.73;;;0.53;;
18090;SDS011;9172;49.948;9.208;2022-09-21T15:41:41;1.67;;;0.80;;
18090;SDS011;9172;49.948;9.208;2022-09-21T15:44:14;0.93;;;0.50;;
18090;SDS011;9172;49.948;9.208;2022-09-21T15:46:46;2.70;;;1.07;;
18090;SDS011;9172;49.948;9.208;2022-09-21T15:49:17;0.70;;;0.67;;
18090;SDS011;9172;49.948;9.208;2022-09-21T15:51:48;0.93;;;0.77;;
18090;SDS011;9172;49.948;9.208;2022-09-21T15:54:22;0.97;;;0.87;;
18090;SDS011;9172;49.948;9.208;2022-09-21T15:56:57;1.27;;;0.60;;
18090;SDS011;9172;49.948;9.208;2022-09-21T15:59:28;1.70;;;1.10;;
18090;SDS011;9172;49.948;9.208;2022-09-21T16:01:57;1.00;;;0.70;;
18090;SDS011;9172;49.948;9.208;2022-09-21T16:04:30;0.70;;;0.70;;
18090;SDS011;9172;49.948;9.208;2022-09-21T16:07:02;1.70;;;0.70;;
18090;SDS011;9172;49.948;9.208;2022-09-21T16:09:36;1.33;;;0.80;;
18090;SDS011;9172;49.948;9.208;2022-09-21T16:15:22;1.00;;;0.67;;
18090;SDS011;9172;49.948;9.208;2022-09-21T16:17:54;1.30;;;0.60;;
18090;SDS011;9172;49.948;9.208;2022-09-21T16:23:23;0.83;;;0.63;;
18090;SDS011;9172;49.948;9.208;2022-09-21T16:25:56;0.93;;;0.70;;
18090;SDS011;9172;49.948;9.208;2022-09-21T16:28:28;1.30;;;0.60;;
18090;SDS011;9172;49.948;9.208;2022-09-21T16:31:20;0.47;;;0.43;;
18090;SDS011;9172;49.948;9.208;2022-09-21T16:33:58;1.23;;;0.60;;